sensor_id;sensor_type;location;lat;lon;timestamp;P1;durP1;ratioP1;P2;durP2;ratioP2
11839;SDS011;5979;50.800;4.904;2023-03-14T00:01:31;3.38;;;1.58;;
11839;SDS011;5979;50.800;4.904;2023-03-14T00:03:57;4.25;;;1.30;;
11839;SDS011;5979;50.800;4.904;2023-03-14T00:06:23;2.10;;;1.20;;
11839;SDS011;5979;50.800;4.904;2023-03-14T00:08:49;4.75;;;1.73;;
11839;SDS011;5979;50.800;4.904;2023-03-14T00:11:18;5.13;;;1.50;;
11839;SDS011;5979;50.800;4.904;2023-03-14T00:13:48;3.67;;;1.58;;
11839;SDS011;5979;50.800;4.904;2023-03-14T00:16:15;1.85;;;1.30;;
11839;SDS011;5979;50.800;4.904;2023-03-14T00:18:41;3.70;;;1.40;;
11839;SDS011;5979;50.800;4.904;2023-03-14T00:21:07;4.53;;;1.33;;
11839;SDS011;5979;50.800;4.904;2023-03-14T00:23:35;3.42;;;1.48;;
11839;SDS011;5979;50.800;4.904;2023-03-14T00:26:02;4.22;;;1.80;;
11839;SDS011;5979;50.800;4.904;2023-03-14T00:28:33;4.53;;;1.45;;
11839;SDS011;5979;50.800;4.904;2023-03-14T00:31:01;4.25;;;1.63;;
11839;SDS011;5979;50.800;4.904;2023-03-14T00:33:27;4.78;;;1.83;;
11839;SDS011;5979;50.800;4.904;2023-03-14T00:35:54;4.25;;;1.60;;
11839;SDS011;5979;50.800;4.904;2023-03-14T00:41:14;5.47;;;1.85;;
11839;SDS011;5979;50.800;4.904;2023-03-14T00:43:44;4.47;;;2.05;;
11839;SDS011;5979;50.800;4.904;2023-03-14T00:46:11;5.47;;;1.45;;
11839;SDS011;5979;50.800;4.904;2023-03-14T00:48:37;5.18;;;1.85;;
11839;SDS011;5979;50.800;4.904;2023-03-14T00:51:04;5.78;;;1.80;;
11839;SDS011;5979;50.800;4.904;2023-03-14T00:53:30;3.13;;;1.80;;
11839;SDS011;5979;50.800;4.904;2023-03-14T00:55:56;3.97;;;1.60;;
11839;SDS011;5979;50.800;4.904;2023-03-14T00:58:22;3.63;;;1.65;;
11839;SDS011;5979;50.800;4.904;2023-03-14T01:00:48;4.80;;;2.00;;
11839;SDS011;5979;50.800;4.904;2023-03-14T01:03:14;3.72;;;1.85;;
11839;SDS011;5979;50.800;4.904;2023-03-14T01:05:40;3.63;;;1.80;;
11839;SDS011;5979;50.800;4.904;2023-03-14T01:08:06;6.22;;;2.30;;
11839;SDS011;5979;50.800;4.904;2023-03-14T01:10:33;5.95;;;2.30;;
11839;SDS011;5979;50.800;4.904;2023-03-14T01:12:59;7.32;;;2.10;;
11839;SDS011;5979;50.800;4.904;2023-03-14T01:15:25;5.80;;;2.33;;
11839;SDS011;5979;50.800;4.904;2023-03-14T01:17:51;4.70;;;2.30;;
11839;SDS011;5979;50.800;4.904;2023-03-14T01:20:16;6.20;;;2.30;;
11839;SDS011;5979;50.800;4.904;2023-03-14T01:22:43;7.10;;;1.98;;
11839;SDS011;5979;50.800;4.904;2023-03-14T01:25:11;5.03;;;2.00;;
11839;SDS011;5979;50.800;4.904;2023-03-14T01:27:40;8.15;;;2.03;;
11839;SDS011;5979;50.800;4.904;2023-03-14T01:30:06;8.38;;;2.17;;
11839;SDS011;5979;50.800;4.904;2023-03-14T01:32:33;6.25;;;2.17;;
11839;SDS011;5979;50.800;4.904;2023-03-14T01:34:59;9.52;;;2.10;;
11839;SDS011;5979;50.800;4.904;2023-03-14T01:37:25;4.03;;;1.98;;
11839;SDS011;5979;50.800;4.904;2023-03-14T01:39:51;7.82;;;2.17;;
11839;SDS011;5979;50.800;4.904;2023-03-14T01:42:16;8.02;;;2.60;;
11839;SDS011;5979;50.800;4.904;2023-03-14T01:44:52;8.25;;;2.67;;
11839;SDS011;5979;50.800;4.904;2023-03-14T01:47:23;8.00;;;2.38;;
11839;SDS011;5979;50.800;4.904;2023-03-14T01:49:51;9.52;;;2.30;;
11839;SDS011;5979;50.800;4.904;2023-03-14T01:52:36;4.32;;;2.22;;
11839;SDS011;5979;50.800;4.904;2023-03-14T01:55:19;5.70;;;2.00;;
11839;SDS011;5979;50.800;4.904;2023-03-14T01:57:52;7.82;;;2.08;;
11839;SDS011;5979;50.800;4.904;2023-03-14T02:00:22;7.72;;;2.05;;
11839;SDS011;5979;50.800;4.904;2023-03-14T02:02:49;5.22;;;1.98;;
11839;SDS011;5979;50.800;4.904;2023-03-14T02:05:18;8.93;;;2.78;;
11839;SDS011;5979;50.800;4.904;2023-03-14T02:07:55;3.50;;;2.10;;
11839;SDS011;5979;50.800;4.904;2023-03-14T02:10:23;5.18;;;1.80;;
11839;SDS011;5979;50.800;4.904;2023-03-14T02:12:54;4.65;;;1.70;;
11839;SDS011;5979;50.800;4.904;2023-03-14T02:15:22;7.40;;;2.53;;
11839;SDS011;5979;50.800;4.904;2023-03-14T02:17:48;5.65;;;2.60;;
11839;SDS011;5979;50.800;4.904;2023-03-14T02:22:59;8.13;;;2.15;;
11839;SDS011;5979;50.800;4.904;2023-03-14T02:28:09;9.65;;;2.78;;
11839;SDS011;5979;50.800;4.904;2023-03-14T02:30:35;8.13;;;2.72;;
11839;SDS011;5979;50.800;4.904;2023-03-14T02:33:15;7.90;;;2.33;;
11839;SDS011;5979;50.800;4.904;2023-03-14T02:36:02;13.32;;;3.15;;
11839;SDS011;5979;50.800;4.904;2023-03-14T02:41:15;6.13;;;2.15;;
11839;SDS011;5979;50.800;4.904;2023-03-14T02:43:41;6.25;;;1.88;;
11839;SDS011;5979;50.800;4.904;2023-03-14T02:46:08;5.38;;;1.67;;
11839;SDS011;5979;50.800;4.904;2023-03-14T02:51:15;5.18;;;1.70;;
11839;SDS011;5979;50.800;4.904;2023-03-14T02:53:41;6.45;;;1.80;;
11839;SDS011;5979;50.800;4.904;2023-03-14T02:58:52;7.60;;;2.20;;
11839;SDS011;5979;50.800;4.904;2023-03-14T03:01:17;4.93;;;2.30;;
11839;SDS011;5979;50.800;4.904;2023-03-14T03:03:43;7.53;;;1.98;;
11839;SDS011;5979;50.800;4.904;2023-03-14T03:06:09;7.07;;;2.58;;
11839;SDS011;5979;50.800;4.904;2023-03-14T03:08:35;6.28;;;2.45;;
11839;SDS011;5979;50.800;4.904;2023-03-14T03:11:00;4.32;;;2.08;;
11839;SDS011;5979;50.800;4.904;2023-03-14T03:13:26;8.05;;;2.65;;
11839;SDS011;5979;50.800;4.904;2023-03-14T03:15:52;8.73;;;3.10;;
11839;SDS011;5979;50.800;4.904;2023-03-14T03:18:18;6.10;;;3.67;;
11839;SDS011;5979;50.800;4.904;2023-03-14T03:20:44;6.32;;;3.20;;
11839;SDS011;5979;50.800;4.904;2023-03-14T03:23:10;6.72;;;3.58;;
11839;SDS011;5979;50.800;4.904;2023-03-14T03:25:36;8.05;;;3.92;;
11839;SDS011;5979;50.800;4.904;2023-03-14T03:28:02;9.90;;;3.47;;
11839;SDS011;5979;50.800;4.904;2023-03-14T03:30:33;6.10;;;2.95;;
11839;SDS011;5979;50.800;4.904;2023-03-14T03:33:01;5.40;;;2.83;;
11839;SDS011;5979;50.800;4.904;2023-03-14T03:38:18;5.28;;;2.17;;
11839;SDS011;5979;50.800;4.904;2023-03-14T03:40:45;6.15;;;2.67;;
11839;SDS011;5979;50.800;4.904;2023-03-14T03:43:10;7.13;;;2.40;;
11839;SDS011;5979;50.800;4.904;2023-03-14T03:45:36;8.88;;;2.25;;
11839;SDS011;5979;50.800;4.904;2023-03-14T03:48:02;4.30;;;2.10;;
11839;SDS011;5979;50.800;4.904;2023-03-14T03:50:28;4.28;;;2.13;;
11839;SDS011;5979;50.800;4.904;2023-03-14T03:52:53;4.80;;;2.10;;
11839;SDS011;5979;50.800;4.904;2023-03-14T03:55:19;4.05;;;2.00;;
11839;SDS011;5979;50.800;4.904;2023-03-14T03:57:45;5.88;;;1.95;;
11839;SDS011;5979;50.800;4.904;2023-03-14T04:00:11;7.88;;;2.45;;
11839;SDS011;5979;50.800;4.904;2023-03-14T04:02:37;3.80;;;1.90;;
11839;SDS011;5979;50.800;4.904;2023-03-14T04:05:03;5.63;;;1.92;;
11839;SDS011;5979;50.800;4.904;2023-03-14T04:07:31;2.97;;;1.85;;
11839;SDS011;5979;50.800;4.904;2023-03-14T04:09:57;5.25;;;2.10;;
11839;SDS011;5979;50.800;4.904;2023-03-14T04:12:23;5.00;;;2.08;;
11839;SDS011;5979;50.800;4.904;2023-03-14T04:14:49;2.30;;;1.60;;
11839;SDS011;5979;50.800;4.904;2023-03-14T04:17:14;2.67;;;1.50;;
11839;SDS011;5979;50.800;4.904;2023-03-14T04:19:40;2.83;;;1.85;;
11839;SDS011;5979;50.800;4.904;2023-03-14T04:22:07;4.30;;;2.00;;
11839;SDS011;5979;50.800;4.904;2023-03-14T04:24:33;2.08;;;1.65;;
11839;SDS011;5979;50.800;4.904;2023-03-14T04:26:59;3.92;;;1.67;;
11839;SDS011;5979;50.800;4.904;2023-03-14T04:29:25;4.88;;;1.77;;
11839;SDS011;5979;50.800;4.904;2023-03-14T04:31:51;1.75;;;1.45;;
11839;SDS011;5979;50.800;4.904;2023-03-14T04:34:16;5.05;;;1.88;;
11839;SDS011;5979;50.800;4.904;2023-03-14T04:36:42;3.58;;;1.83;;
11839;SDS011;5979;50.800;4.904;2023-03-14T04:39:08;2.35;;;1.73;;
11839;SDS011;5979;50.800;4.904;2023-03-14T04:41:33;3.60;;;1.30;;
11839;SDS011;5979;50.800;4.904;2023-03-14T04:43:59;4.93;;;1.80;;
11839;SDS011;5979;50.800;4.904;2023-03-14T04:46:25;1.88;;;1.38;;
11839;SDS011;5979;50.800;4.904;2023-03-14T04:48:51;5.00;;;1.50;;
11839;SDS011;5979;50.800;4.904;2023-03-14T04:51:17;3.33;;;1.52;;
11839;SDS011;5979;50.800;4.904;2023-03-14T04:53:42;4.22;;;1.45;;
11839;SDS011;5979;50.800;4.904;2023-03-14T04:56:08;3.70;;;1.52;;
11839;SDS011;5979;50.800;4.904;2023-03-14T04:58:34;2.60;;;1.60;;
11839;SDS011;5979;50.800;4.904;2023-03-14T05:01:03;2.55;;;1.42;;
11839;SDS011;5979;50.800;4.904;2023-03-14T05:03:30;1.40;;;1.10;;
11839;SDS011;5979;50.800;4.904;2023-03-14T05:05:55;1.35;;;1.25;;
11839;SDS011;5979;50.800;4.904;2023-03-14T05:08:22;2.17;;;1.40;;
11839;SDS011;5979;50.800;4.904;2023-03-14T05:10:52;1.58;;;1.48;;
11839;SDS011;5979;50.800;4.904;2023-03-14T05:13:18;2.17;;;1.25;;
11839;SDS011;5979;50.800;4.904;2023-03-14T05:15:44;1.40;;;1.30;;
11839;SDS011;5979;50.800;4.904;2023-03-14T05:18:10;1.23;;;1.20;;
11839;SDS011;5979;50.800;4.904;2023-03-14T05:20:35;1.77;;;1.50;;
11839;SDS011;5979;50.800;4.904;2023-03-14T05:23:01;1.30;;;1.30;;
11839;SDS011;5979;50.800;4.904;2023-03-14T05:25:27;3.08;;;1.65;;
11839;SDS011;5979;50.800;4.904;2023-03-14T05:27:53;2.88;;;1.58;;
11839;SDS011;5979;50.800;4.904;2023-03-14T05:30:20;3.53;;;1.30;;
11839;SDS011;5979;50.800;4.904;2023-03-14T05:32:46;2.15;;;1.60;;
11839;SDS011;5979;50.800;4.904;2023-03-14T05:35:12;1.60;;;1.50;;
11839;SDS011;5979;50.800;4.904;2023-03-14T05:37:38;1.77;;;1.48;;
11839;SDS011;5979;50.800;4.904;2023-03-14T05:40:04;3.63;;;1.70;;
11839;SDS011;5979;50.800;4.904;2023-03-14T05:42:31;3.00;;;1.60;;
11839;SDS011;5979;50.800;4.904;2023-03-14T05:44:57;2.95;;;1.48;;
11839;SDS011;5979;50.800;4.904;2023-03-14T05:47:24;2.05;;;1.65;;
11839;SDS011;5979;50.800;4.904;2023-03-14T05:49:50;2.17;;;1.27;;
11839;SDS011;5979;50.800;4.904;2023-03-14T05:52:16;2.08;;;1.40;;
11839;SDS011;5979;50.800;4.904;2023-03-14T05:54:41;1.60;;;1.38;;
11839;SDS011;5979;50.800;4.904;2023-03-14T05:57:07;1.50;;;1.45;;
11839;SDS011;5979;50.800;4.904;2023-03-14T05:59:33;2.53;;;1.50;;
11839;SDS011;5979;50.800;4.904;2023-03-14T06:01:59;1.50;;;1.40;;
11839;SDS011;5979;50.800;4.904;2023-03-14T06:04:24;1.20;;;1.20;;
11839;SDS011;5979;50.800;4.904;2023-03-14T06:06:50;2.08;;;1.20;;
11839;SDS011;5979;50.800;4.904;2023-03-14T06:09:16;2.47;;;1.50;;
11839;SDS011;5979;50.800;4.904;2023-03-14T06:11:44;3.20;;;1.50;;
11839;SDS011;5979;50.800;4.904;2023-03-14T06:14:11;1.85;;;1.50;;
11839;SDS011;5979;50.800;4.904;2023-03-14T06:16:37;2.25;;;2.05;;
11839;SDS011;5979;50.800;4.904;2023-03-14T06:19:02;4.13;;;1.60;;
11839;SDS011;5979;50.800;4.904;2023-03-14T06:21:28;1.40;;;1.30;;
11839;SDS011;5979;50.800;4.904;2023-03-14T06:23:54;2.40;;;1.38;;
11839;SDS011;5979;50.800;4.904;2023-03-14T06:26:20;1.98;;;1.33;;
11839;SDS011;5979;50.800;4.904;2023-03-14T06:28:46;1.58;;;1.48;;
11839;SDS011;5979;50.800;4.904;2023-03-14T06:31:12;2.22;;;2.03;;
11839;SDS011;5979;50.800;4.904;2023-03-14T06:33:38;7.70;;;1.67;;
11839;SDS011;5979;50.800;4.904;2023-03-14T06:36:04;1.40;;;1.30;;
11839;SDS011;5979;50.800;4.904;2023-03-14T06:38:30;2.30;;;1.40;;
11839;SDS011;5979;50.800;4.904;2023-03-14T06:40:55;1.60;;;1.50;;
11839;SDS011;5979;50.800;4.904;2023-03-14T06:43:21;2.10;;;2.00;;
11839;SDS011;5979;50.800;4.904;2023-03-14T06:45:46;1.80;;;1.70;;
11839;SDS011;5979;50.800;4.904;2023-03-14T06:48:12;3.15;;;1.80;;
11839;SDS011;5979;50.800;4.904;2023-03-14T06:50:38;3.42;;;1.90;;
11839;SDS011;5979;50.800;4.904;2023-03-14T06:53:05;3.97;;;1.98;;
11839;SDS011;5979;50.800;4.904;2023-03-14T06:55:31;1.80;;;1.70;;
11839;SDS011;5979;50.800;4.904;2023-03-14T06:57:57;1.90;;;1.80;;
11839;SDS011;5979;50.800;4.904;2023-03-14T07:00:22;2.03;;;1.70;;
11839;SDS011;5979;50.800;4.904;2023-03-14T07:02:48;3.13;;;2.00;;
11839;SDS011;5979;50.800;4.904;2023-03-14T07:05:14;2.17;;;1.92;;
11839;SDS011;5979;50.800;4.904;2023-03-14T07:07:40;1.80;;;1.70;;
11839;SDS011;5979;50.800;4.904;2023-03-14T07:10:05;1.95;;;1.85;;
11839;SDS011;5979;50.800;4.904;2023-03-14T07:12:33;2.72;;;1.95;;
11839;SDS011;5979;50.800;4.904;2023-03-14T07:14:59;2.55;;;2.22;;
11839;SDS011;5979;50.800;4.904;2023-03-14T07:17:25;2.90;;;2.38;;
11839;SDS011;5979;50.800;4.904;2023-03-14T07:19:50;2.67;;;1.98;;
11839;SDS011;5979;50.800;4.904;2023-03-14T07:22:16;1.95;;;1.83;;
11839;SDS011;5979;50.800;4.904;2023-03-14T07:24:42;3.65;;;2.10;;
11839;SDS011;5979;50.800;4.904;2023-03-14T07:27:07;3.40;;;2.22;;
11839;SDS011;5979;50.800;4.904;2023-03-14T07:29:33;2.83;;;2.00;;
11839;SDS011;5979;50.800;4.904;2023-03-14T07:31:58;1.70;;;1.13;;
11839;SDS011;5979;50.800;4.904;2023-03-14T07:34:24;1.00;;;0.80;;
11839;SDS011;5979;50.800;4.904;2023-03-14T07:36:50;1.02;;;0.90;;
11839;SDS011;5979;50.800;4.904;2023-03-14T07:39:15;0.73;;;0.73;;
11839;SDS011;5979;50.800;4.904;2023-03-14T07:41:41;1.85;;;0.85;;
11839;SDS011;5979;50.800;4.904;2023-03-14T07:44:07;1.48;;;0.80;;
11839;SDS011;5979;50.800;4.904;2023-03-14T07:46:32;0.70;;;0.70;;
11839;SDS011;5979;50.800;4.904;2023-03-14T07:48:58;2.13;;;1.02;;
11839;SDS011;5979;50.800;4.904;2023-03-14T07:51:24;0.90;;;0.90;;
11839;SDS011;5979;50.800;4.904;2023-03-14T07:53:50;0.80;;;0.80;;
11839;SDS011;5979;50.800;4.904;2023-03-14T07:56:16;3.22;;;1.10;;
11839;SDS011;5979;50.800;4.904;2023-03-14T07:58:41;1.45;;;1.17;;
11839;SDS011;5979;50.800;4.904;2023-03-14T08:01:07;2.88;;;1.40;;
11839;SDS011;5979;50.800;4.904;2023-03-14T08:03:33;3.08;;;1.40;;
11839;SDS011;5979;50.800;4.904;2023-03-14T08:05:59;4.63;;;1.77;;
11839;SDS011;5979;50.800;4.904;2023-03-14T08:08:24;2.67;;;1.42;;
11839;SDS011;5979;50.800;4.904;2023-03-14T08:10:50;1.80;;;1.70;;
11839;SDS011;5979;50.800;4.904;2023-03-14T08:13:16;2.05;;;1.85;;
11839;SDS011;5979;50.800;4.904;2023-03-14T08:15:42;1.70;;;1.60;;
11839;SDS011;5979;50.800;4.904;2023-03-14T08:18:07;2.35;;;2.08;;
11839;SDS011;5979;50.800;4.904;2023-03-14T08:20:33;2.53;;;2.17;;
11839;SDS011;5979;50.800;4.904;2023-03-14T08:23:00;6.30;;;2.38;;
11839;SDS011;5979;50.800;4.904;2023-03-14T08:25:27;3.00;;;2.70;;
11839;SDS011;5979;50.800;4.904;2023-03-14T08:27:53;3.05;;;2.33;;
11839;SDS011;5979;50.800;4.904;2023-03-14T08:30:20;2.92;;;2.38;;
11839;SDS011;5979;50.800;4.904;2023-03-14T08:32:46;2.88;;;2.50;;
11839;SDS011;5979;50.800;4.904;2023-03-14T08:35:13;3.45;;;2.65;;
11839;SDS011;5979;50.800;4.904;2023-03-14T08:37:39;2.60;;;2.50;;
11839;SDS011;5979;50.800;4.904;2023-03-14T08:40:05;2.85;;;2.42;;
11839;SDS011;5979;50.800;4.904;2023-03-14T08:42:32;4.20;;;2.28;;
11839;SDS011;5979;50.800;4.904;2023-03-14T08:44:58;4.32;;;2.20;;
11839;SDS011;5979;50.800;4.904;2023-03-14T08:47:24;4.75;;;2.40;;
11839;SDS011;5979;50.800;4.904;2023-03-14T08:49:50;2.97;;;2.35;;
11839;SDS011;5979;50.800;4.904;2023-03-14T08:52:16;1.98;;;1.88;;
11839;SDS011;5979;50.800;4.904;2023-03-14T08:54:48;2.13;;;1.77;;
11839;SDS011;5979;50.800;4.904;2023-03-14T08:57:16;2.80;;;1.70;;
11839;SDS011;5979;50.800;4.904;2023-03-14T08:59:42;2.00;;;1.90;;
11839;SDS011;5979;50.800;4.904;2023-03-14T09:02:11;1.80;;;1.70;;
11839;SDS011;5979;50.800;4.904;2023-03-14T09:04:37;2.35;;;2.17;;
11839;SDS011;5979;50.800;4.904;2023-03-14T09:07:03;3.15;;;2.00;;
11839;SDS011;5979;50.800;4.904;2023-03-14T09:09:28;3.58;;;2.00;;
11839;SDS011;5979;50.800;4.904;2023-03-14T09:11:57;2.38;;;2.22;;
11839;SDS011;5979;50.800;4.904;2023-03-14T09:14:23;1.98;;;1.88;;
11839;SDS011;5979;50.800;4.904;2023-03-14T09:16:48;2.75;;;1.83;;
11839;SDS011;5979;50.800;4.904;2023-03-14T09:19:15;2.40;;;1.80;;
11839;SDS011;5979;50.800;4.904;2023-03-14T09:21:41;2.13;;;1.80;;
11839;SDS011;5979;50.800;4.904;2023-03-14T09:24:07;2.92;;;2.13;;
11839;SDS011;5979;50.800;4.904;2023-03-14T09:26:32;1.80;;;1.70;;
11839;SDS011;5979;50.800;4.904;2023-03-14T09:28:58;1.95;;;1.85;;
11839;SDS011;5979;50.800;4.904;2023-03-14T09:31:24;3.90;;;2.00;;
11839;SDS011;5979;50.800;4.904;2023-03-14T09:33:50;2.55;;;2.38;;
11839;SDS011;5979;50.800;4.904;2023-03-14T09:36:15;5.03;;;2.25;;
11839;SDS011;5979;50.800;4.904;2023-03-14T09:38:43;2.33;;;1.98;;
11839;SDS011;5979;50.800;4.904;2023-03-14T09:41:11;3.95;;;3.17;;
11839;SDS011;5979;50.800;4.904;2023-03-14T09:43:43;3.58;;;2.42;;
11839;SDS011;5979;50.800;4.904;2023-03-14T09:46:11;2.55;;;2.45;;
11839;SDS011;5979;50.800;4.904;2023-03-14T09:48:39;3.72;;;2.42;;
11839;SDS011;5979;50.800;4.904;2023-03-14T09:51:16;5.97;;;2.38;;
11839;SDS011;5979;50.800;4.904;2023-03-14T09:53:45;2.50;;;2.30;;
11839;SDS011;5979;50.800;4.904;2023-03-14T09:56:13;2.50;;;1.88;;
11839;SDS011;5979;50.800;4.904;2023-03-14T09:58:47;2.50;;;2.03;;
11839;SDS011;5979;50.800;4.904;2023-03-14T10:01:17;1.98;;;1.88;;
11839;SDS011;5979;50.800;4.904;2023-03-14T10:03:49;2.30;;;1.98;;
11839;SDS011;5979;50.800;4.904;2023-03-14T10:06:18;2.25;;;2.08;;
11839;SDS011;5979;50.800;4.904;2023-03-14T10:08:45;1.88;;;1.75;;
11839;SDS011;5979;50.800;4.904;2023-03-14T10:11:13;2.58;;;2.35;;
11839;SDS011;5979;50.800;4.904;2023-03-14T10:16:37;2.50;;;2.30;;
11839;SDS011;5979;50.800;4.904;2023-03-14T10:19:09;2.63;;;2.25;;
11839;SDS011;5979;50.800;4.904;2023-03-14T10:21:40;2.03;;;1.92;;
11839;SDS011;5979;50.800;4.904;2023-03-14T10:26:48;2.67;;;2.47;;
11839;SDS011;5979;50.800;4.904;2023-03-14T10:29:18;5.60;;;2.55;;
11839;SDS011;5979;50.800;4.904;2023-03-14T10:31:48;5.72;;;2.75;;
11839;SDS011;5979;50.800;4.904;2023-03-14T10:34:20;4.57;;;2.63;;
11839;SDS011;5979;50.800;4.904;2023-03-14T10:36:54;3.80;;;2.40;;
11839;SDS011;5979;50.800;4.904;2023-03-14T10:42:19;4.32;;;2.13;;
11839;SDS011;5979;50.800;4.904;2023-03-14T10:44:49;2.40;;;2.13;;
11839;SDS011;5979;50.800;4.904;2023-03-14T10:47:22;4.78;;;2.25;;
11839;SDS011;5979;50.800;4.904;2023-03-14T10:49:49;7.03;;;2.33;;
11839;SDS011;5979;50.800;4.904;2023-03-14T10:57:20;3.35;;;2.47;;
11839;SDS011;5979;50.800;4.904;2023-03-14T10:59:46;2.60;;;2.03;;
11839;SDS011;5979;50.800;4.904;2023-03-14T11:02:27;1.90;;;1.60;;
11839;SDS011;5979;50.800;4.904;2023-03-14T11:05:11;4.47;;;1.70;;
11839;SDS011;5979;50.800;4.904;2023-03-14T11:07:46;3.65;;;1.75;;
11839;SDS011;5979;50.800;4.904;2023-03-14T11:10:14;1.90;;;1.52;;
11839;SDS011;5979;50.800;4.904;2023-03-14T11:28:48;1.38;;;1.27;;
11839;SDS011;5979;50.800;4.904;2023-03-14T11:31:18;2.25;;;1.10;;
11839;SDS011;5979;50.800;4.904;2023-03-14T11:33:57;2.17;;;1.40;;
11839;SDS011;5979;50.800;4.904;2023-03-14T11:39:21;1.10;;;1.00;;
11839;SDS011;5979;50.800;4.904;2023-03-14T11:44:43;1.70;;;1.00;;
11839;SDS011;5979;50.800;4.904;2023-03-14T11:47:22;0.93;;;0.93;;
11839;SDS011;5979;50.800;4.904;2023-03-14T11:49:58;0.70;;;0.70;;
11839;SDS011;5979;50.800;4.904;2023-03-14T11:52:50;2.10;;;0.63;;
11839;SDS011;5979;50.800;4.904;2023-03-14T11:55:36;1.35;;;0.57;;
11839;SDS011;5979;50.800;4.904;2023-03-14T11:58:16;0.98;;;0.65;;
11839;SDS011;5979;50.800;4.904;2023-03-14T12:00:46;0.93;;;0.73;;
11839;SDS011;5979;50.800;4.904;2023-03-14T12:03:19;1.08;;;0.77;;
11839;SDS011;5979;50.800;4.904;2023-03-14T12:11:04;0.90;;;0.73;;
11839;SDS011;5979;50.800;4.904;2023-03-14T12:13:47;1.15;;;1.08;;
11839;SDS011;5979;50.800;4.904;2023-03-14T12:19:14;0.85;;;0.85;;
11839;SDS011;5979;50.800;4.904;2023-03-14T12:21:48;1.55;;;0.98;;
11839;SDS011;5979;50.800;4.904;2023-03-14T12:24:20;2.40;;;1.02;;
11839;SDS011;5979;50.800;4.904;2023-03-14T12:26:57;1.60;;;0.80;;
11839;SDS011;5979;50.800;4.904;2023-03-14T12:29:24;0.60;;;0.60;;
11839;SDS011;5979;50.800;4.904;2023-03-14T12:32:35;0.80;;;0.60;;
11839;SDS011;5979;50.800;4.904;2023-03-14T12:34:49;0.50;;;0.50;;
11839;SDS011;5979;50.800;4.904;2023-03-14T12:40:21;0.35;;;0.35;;
11839;SDS011;5979;50.800;4.904;2023-03-14T12:43:01;0.60;;;0.60;;
11839;SDS011;5979;50.800;4.904;2023-03-14T12:45:35;0.40;;;0.40;;
11839;SDS011;5979;50.800;4.904;2023-03-14T12:48:14;0.50;;;0.50;;
11839;SDS011;5979;50.800;4.904;2023-03-14T12:50:54;0.90;;;0.50;;
11839;SDS011;5979;50.800;4.904;2023-03-14T13:04:09;0.85;;;0.60;;
11839;SDS011;5979;50.800;4.904;2023-03-14T13:12:11;1.75;;;0.73;;
11839;SDS011;5979;50.800;4.904;2023-03-14T13:14:43;0.70;;;0.70;;
11839;SDS011;5979;50.800;4.904;2023-03-14T13:17:12;2.20;;;0.95;;
11839;SDS011;5979;50.800;4.904;2023-03-14T13:19:39;0.70;;;0.70;;
11839;SDS011;5979;50.800;4.904;2023-03-14T13:22:06;0.80;;;0.80;;
11839;SDS011;5979;50.800;4.904;2023-03-14T13:24:42;0.70;;;0.70;;
11839;SDS011;5979;50.800;4.904;2023-03-14T13:27:14;0.75;;;0.75;;
11839;SDS011;5979;50.800;4.904;2023-03-14T13:29:43;0.88;;;0.88;;
11839;SDS011;5979;50.800;4.904;2023-03-14T13:32:22;0.80;;;0.80;;
11839;SDS011;5979;50.800;4.904;2023-03-14T13:34:55;1.38;;;1.10;;
11839;SDS011;5979;50.800;4.904;2023-03-14T13:37:22;2.05;;;1.40;;
11839;SDS011;5979;50.800;4.904;2023-03-14T13:39:50;1.50;;;1.08;;
11839;SDS011;5979;50.800;4.904;2023-03-14T13:42:17;1.08;;;1.08;;
11839;SDS011;5979;50.800;4.904;2023-03-14T13:44:43;1.55;;;1.20;;
11839;SDS011;5979;50.800;4.904;2023-03-14T13:47:14;2.63;;;1.10;;
11839;SDS011;5979;50.800;4.904;2023-03-14T13:49:42;2.08;;;1.50;;
11839;SDS011;5979;50.800;4.904;2023-03-14T13:52:27;1.48;;;1.20;;
11839;SDS011;5979;50.800;4.904;2023-03-14T13:55:01;2.63;;;1.20;;
11839;SDS011;5979;50.800;4.904;2023-03-14T13:57:42;2.53;;;1.80;;
11839;SDS011;5979;50.800;4.904;2023-03-14T14:00:17;8.85;;;2.72;;
11839;SDS011;5979;50.800;4.904;2023-03-14T14:05:28;5.82;;;1.60;;
11839;SDS011;5979;50.800;4.904;2023-03-14T14:07:56;5.13;;;1.70;;
11839;SDS011;5979;50.800;4.904;2023-03-14T14:10:22;4.00;;;1.53;;
11839;SDS011;5979;50.800;4.904;2023-03-14T14:12:59;4.23;;;1.67;;
11839;SDS011;5979;50.800;4.904;2023-03-14T14:15:28;6.37;;;1.87;;
11839;SDS011;5979;50.800;4.904;2023-03-14T14:18:00;4.50;;;2.53;;
11839;SDS011;5979;50.800;4.904;2023-03-14T14:20:29;6.18;;;1.73;;
11839;SDS011;5979;50.800;4.904;2023-03-14T14:23:00;8.02;;;2.33;;
11839;SDS011;5979;50.800;4.904;2023-03-14T14:25:28;5.93;;;2.03;;
11839;SDS011;5979;50.800;4.904;2023-03-14T14:27:55;2.45;;;1.60;;
11839;SDS011;5979;50.800;4.904;2023-03-14T14:32:47;6.57;;;1.65;;
11839;SDS011;5979;50.800;4.904;2023-03-14T14:35:31;6.90;;;2.40;;
11839;SDS011;5979;50.800;4.904;2023-03-14T14:37:58;5.40;;;2.50;;
11839;SDS011;5979;50.800;4.904;2023-03-14T14:40:25;5.88;;;1.40;;
11839;SDS011;5979;50.800;4.904;2023-03-14T14:42:53;3.58;;;1.50;;
11839;SDS011;5979;50.800;4.904;2023-03-14T14:45:21;4.93;;;1.80;;
11839;SDS011;5979;50.800;4.904;2023-03-14T14:47:53;3.17;;;1.67;;
11839;SDS011;5979;50.800;4.904;2023-03-14T14:50:31;5.65;;;2.40;;
11839;SDS011;5979;50.800;4.904;2023-03-14T14:53:01;6.05;;;1.90;;
11839;SDS011;5979;50.800;4.904;2023-03-14T14:55:30;3.38;;;1.85;;
11839;SDS011;5979;50.800;4.904;2023-03-14T14:58:09;6.22;;;2.05;;
11839;SDS011;5979;50.800;4.904;2023-03-14T15:00:52;6.82;;;2.78;;
11839;SDS011;5979;50.800;4.904;2023-03-14T15:03:25;13.20;;;3.25;;
11839;SDS011;5979;50.800;4.904;2023-03-14T15:05:53;7.80;;;2.47;;
11839;SDS011;5979;50.800;4.904;2023-03-14T15:08:20;11.63;;;2.50;;
11839;SDS011;5979;50.800;4.904;2023-03-14T15:10:46;8.75;;;2.70;;
11839;SDS011;5979;50.800;4.904;2023-03-14T15:13:11;7.28;;;2.40;;
11839;SDS011;5979;50.800;4.904;2023-03-14T15:15:37;6.85;;;2.80;;
11839;SDS011;5979;50.800;4.904;2023-03-14T15:18:08;7.47;;;2.40;;
11839;SDS011;5979;50.800;4.904;2023-03-14T15:20:43;4.53;;;2.42;;
11839;SDS011;5979;50.800;4.904;2023-03-14T15:23:11;5.20;;;2.05;;
11839;SDS011;5979;50.800;4.904;2023-03-14T15:25:37;4.82;;;2.15;;
11839;SDS011;5979;50.800;4.904;2023-03-14T15:28:09;6.45;;;2.40;;
11839;SDS011;5979;50.800;4.904;2023-03-14T15:30:40;7.28;;;2.38;;
11839;SDS011;5979;50.800;4.904;2023-03-14T15:33:06;3.50;;;1.70;;
11839;SDS011;5979;50.800;4.904;2023-03-14T15:35:36;6.22;;;1.52;;
11839;SDS011;5979;50.800;4.904;2023-03-14T15:38:02;3.78;;;1.80;;
11839;SDS011;5979;50.800;4.904;2023-03-14T15:40:28;5.73;;;1.30;;
11839;SDS011;5979;50.800;4.904;2023-03-14T15:42:55;6.13;;;1.80;;
11839;SDS011;5979;50.800;4.904;2023-03-14T15:45:20;4.68;;;1.55;;
11839;SDS011;5979;50.800;4.904;2023-03-14T15:47:46;7.03;;;1.88;;
11839;SDS011;5979;50.800;4.904;2023-03-14T15:50:12;3.15;;;1.52;;
11839;SDS011;5979;50.800;4.904;2023-03-14T15:52:37;4.22;;;1.75;;
11839;SDS011;5979;50.800;4.904;2023-03-14T15:55:03;3.05;;;1.48;;
11839;SDS011;5979;50.800;4.904;2023-03-14T15:57:29;6.35;;;1.70;;
11839;SDS011;5979;50.800;4.904;2023-03-14T15:59:55;9.25;;;2.03;;
11839;SDS011;5979;50.800;4.904;2023-03-14T16:02:21;5.53;;;1.55;;
11839;SDS011;5979;50.800;4.904;2023-03-14T16:04:47;4.13;;;1.67;;
11839;SDS011;5979;50.800;4.904;2023-03-14T16:07:12;6.95;;;1.60;;
11839;SDS011;5979;50.800;4.904;2023-03-14T16:09:38;1.98;;;1.20;;
11839;SDS011;5979;50.800;4.904;2023-03-14T16:12:04;4.97;;;1.42;;
11839;SDS011;5979;50.800;4.904;2023-03-14T16:14:31;4.15;;;1.50;;
11839;SDS011;5979;50.800;4.904;2023-03-14T16:16:57;4.57;;;1.30;;
11839;SDS011;5979;50.800;4.904;2023-03-14T16:19:24;5.22;;;1.30;;
11839;SDS011;5979;50.800;4.904;2023-03-14T16:21:55;6.25;;;1.48;;
11839;SDS011;5979;50.800;4.904;2023-03-14T16:24:21;1.80;;;1.20;;
11839;SDS011;5979;50.800;4.904;2023-03-14T16:26:48;3.58;;;1.35;;
11839;SDS011;5979;50.800;4.904;2023-03-14T16:29:13;2.33;;;1.30;;
11839;SDS011;5979;50.800;4.904;2023-03-14T16:31:41;3.13;;;1.75;;
11839;SDS011;5979;50.800;4.904;2023-03-14T16:34:10;3.03;;;2.20;;